sensor_id;sensor_type;location;lat;lon;timestamp;P1;durP1;ratioP1;P2;durP2;ratioP2
54235;SDS011;40151;43.606;1.472;2023-11-21T00:00:01;7.25;;;2.40;;
54235;SDS011;40151;43.606;1.472;2023-11-21T00:02:27;6.90;;;2.60;;
54235;SDS011;40151;43.606;1.472;2023-11-21T00:04:53;5.82;;;2.13;;
54235;SDS011;40151;43.606;1.472;2023-11-21T00:07:18;6.68;;;2.80;;
54235;SDS011;40151;43.606;1.472;2023-11-21T00:09:43;7.28;;;2.63;;
54235;SDS011;40151;43.606;1.472;2023-11-21T00:12:09;7.65;;;2.42;;
54235;SDS011;40151;43.606;1.472;2023-11-21T00:14:35;6.13;;;2.40;;
54235;SDS011;40151;43.606;1.472;2023-11-21T00:17:01;6.43;;;2.70;;
54235;SDS011;40151;43.606;1.472;2023-11-21T00:19:27;6.78;;;2.65;;
54235;SDS011;40151;43.606;1.472;2023-11-21T00:21:53;7.05;;;2.25;;
54235;SDS011;40151;43.606;1.472;2023-11-21T00:24:18;5.05;;;1.95;;
54235;SDS011;40151;43.606;1.472;2023-11-21T00:26:44;7.72;;;2.35;;
54235;SDS011;40151;43.606;1.472;2023-11-21T00:29:09;9.60;;;2.65;;
54235;SDS011;40151;43.606;1.472;2023-11-21T00:31:35;7.78;;;2.80;;
54235;SDS011;40151;43.606;1.472;2023-11-21T00:34:02;7.50;;;2.38;;
54235;SDS011;40151;43.606;1.472;2023-11-21T00:36:33;7.15;;;2.00;;
54235;SDS011;40151;43.606;1.472;2023-11-21T00:38:59;6.25;;;2.13;;
54235;SDS011;40151;43.606;1.472;2023-11-21T00:41:24;3.92;;;1.65;;
54235;SDS011;40151;43.606;1.472;2023-11-21T00:43:52;8.23;;;2.67;;
54235;SDS011;40151;43.606;1.472;2023-11-21T00:46:18;8.88;;;2.63;;
54235;SDS011;40151;43.606;1.472;2023-11-21T00:48:44;6.75;;;1.83;;
54235;SDS011;40151;43.606;1.472;2023-11-21T00:51:09;6.55;;;2.40;;
54235;SDS011;40151;43.606;1.472;2023-11-21T00:53:35;5.18;;;1.95;;
54235;SDS011;40151;43.606;1.472;2023-11-21T00:56:00;4.93;;;1.52;;
54235;SDS011;40151;43.606;1.472;2023-11-21T00:58:26;6.53;;;2.30;;
54235;SDS011;40151;43.606;1.472;2023-11-21T01:00:51;6.85;;;2.30;;
54235;SDS011;40151;43.606;1.472;2023-11-21T01:03:17;6.28;;;2.00;;
54235;SDS011;40151;43.606;1.472;2023-11-21T01:05:43;6.00;;;2.20;;
54235;SDS011;40151;43.606;1.472;2023-11-21T01:08:09;7.05;;;2.00;;
54235;SDS011;40151;43.606;1.472;2023-11-21T01:10:35;8.70;;;2.00;;
54235;SDS011;40151;43.606;1.472;2023-11-21T01:13:00;5.78;;;1.95;;
54235;SDS011;40151;43.606;1.472;2023-11-21T01:15:26;5.50;;;1.92;;
54235;SDS011;40151;43.606;1.472;2023-11-21T01:17:52;5.97;;;2.20;;
54235;SDS011;40151;43.606;1.472;2023-11-21T01:20:17;3.97;;;1.73;;
54235;SDS011;40151;43.606;1.472;2023-11-21T01:22:43;5.78;;;1.95;;
54235;SDS011;40151;43.606;1.472;2023-11-21T01:25:09;4.95;;;1.80;;
54235;SDS011;40151;43.606;1.472;2023-11-21T01:27:35;5.63;;;2.05;;
54235;SDS011;40151;43.606;1.472;2023-11-21T01:30:02;8.50;;;2.38;;
54235;SDS011;40151;43.606;1.472;2023-11-21T01:32:28;6.90;;;1.98;;
54235;SDS011;40151;43.606;1.472;2023-11-21T01:34:53;3.65;;;1.75;;
54235;SDS011;40151;43.606;1.472;2023-11-21T01:37:20;3.97;;;1.70;;
54235;SDS011;40151;43.606;1.472;2023-11-21T01:39:46;6.82;;;1.67;;
54235;SDS011;40151;43.606;1.472;2023-11-21T01:42:12;4.88;;;1.70;;
54235;SDS011;40151;43.606;1.472;2023-11-21T01:44:38;7.28;;;2.25;;
54235;SDS011;40151;43.606;1.472;2023-11-21T01:47:04;7.47;;;2.10;;
54235;SDS011;40151;43.606;1.472;2023-11-21T01:49:33;5.57;;;1.42;;
54235;SDS011;40151;43.606;1.472;2023-11-21T01:52:00;4.05;;;1.45;;
54235;SDS011;40151;43.606;1.472;2023-11-21T01:54:26;6.47;;;1.65;;
54235;SDS011;40151;43.606;1.472;2023-11-21T01:56:52;5.97;;;1.90;;
54235;SDS011;40151;43.606;1.472;2023-11-21T01:59:18;8.32;;;2.13;;
54235;SDS011;40151;43.606;1.472;2023-11-21T02:01:46;4.78;;;1.70;;
54235;SDS011;40151;43.606;1.472;2023-11-21T02:04:12;4.95;;;1.80;;
54235;SDS011;40151;43.606;1.472;2023-11-21T02:06:38;5.18;;;1.52;;
54235;SDS011;40151;43.606;1.472;2023-11-21T02:09:04;7.45;;;1.65;;
54235;SDS011;40151;43.606;1.472;2023-11-21T02:11:30;6.43;;;2.00;;
54235;SDS011;40151;43.606;1.472;2023-11-21T02:13:56;7.30;;;1.80;;
54235;SDS011;40151;43.606;1.472;2023-11-21T02:16:24;4.75;;;1.60;;
54235;SDS011;40151;43.606;1.472;2023-11-21T02:18:49;3.95;;;1.73;;
54235;SDS011;40151;43.606;1.472;2023-11-21T02:21:17;6.55;;;1.65;;
54235;SDS011;40151;43.606;1.472;2023-11-21T02:23:44;4.00;;;1.35;;
54235;SDS011;40151;43.606;1.472;2023-11-21T02:26:11;5.15;;;1.55;;
54235;SDS011;40151;43.606;1.472;2023-11-21T02:28:37;4.97;;;1.73;;
54235;SDS011;40151;43.606;1.472;2023-11-21T02:31:04;5.43;;;1.63;;
54235;SDS011;40151;43.606;1.472;2023-11-21T02:33:29;5.30;;;1.40;;
54235;SDS011;40151;43.606;1.472;2023-11-21T02:35:59;4.20;;;1.23;;
54235;SDS011;40151;43.606;1.472;2023-11-21T02:38:27;5.35;;;1.63;;
54235;SDS011;40151;43.606;1.472;2023-11-21T02:40:53;4.78;;;1.52;;
54235;SDS011;40151;43.606;1.472;2023-11-21T02:43:18;4.70;;;1.60;;
54235;SDS011;40151;43.606;1.472;2023-11-21T02:45:44;4.53;;;1.50;;
54235;SDS011;40151;43.606;1.472;2023-11-21T02:48:09;8.38;;;2.00;;
54235;SDS011;40151;43.606;1.472;2023-11-21T02:50:34;4.95;;;1.58;;
54235;SDS011;40151;43.606;1.472;2023-11-21T02:53:03;3.95;;;1.48;;
54235;SDS011;40151;43.606;1.472;2023-11-21T02:55:30;4.13;;;1.50;;
54235;SDS011;40151;43.606;1.472;2023-11-21T02:57:59;6.03;;;1.75;;
54235;SDS011;40151;43.606;1.472;2023-11-21T03:00:25;5.68;;;1.90;;
54235;SDS011;40151;43.606;1.472;2023-11-21T03:02:50;6.55;;;1.77;;
54235;SDS011;40151;43.606;1.472;2023-11-21T03:05:16;5.05;;;1.30;;
54235;SDS011;40151;43.606;1.472;2023-11-21T03:07:41;3.85;;;1.20;;
54235;SDS011;40151;43.606;1.472;2023-11-21T03:10:07;3.75;;;1.10;;
54235;SDS011;40151;43.606;1.472;2023-11-21T03:12:36;4.35;;;1.50;;
54235;SDS011;40151;43.606;1.472;2023-11-21T03:15:07;3.92;;;1.30;;
54235;SDS011;40151;43.606;1.472;2023-11-21T03:17:33;3.88;;;1.23;;
54235;SDS011;40151;43.606;1.472;2023-11-21T03:19:59;4.15;;;1.33;;
54235;SDS011;40151;43.606;1.472;2023-11-21T03:22:25;5.32;;;1.55;;
54235;SDS011;40151;43.606;1.472;2023-11-21T03:24:51;3.95;;;1.30;;
54235;SDS011;40151;43.606;1.472;2023-11-21T03:27:17;5.45;;;1.60;;
54235;SDS011;40151;43.606;1.472;2023-11-21T03:29:43;4.97;;;1.40;;
54235;SDS011;40151;43.606;1.472;2023-11-21T03:32:09;7.45;;;1.58;;
54235;SDS011;40151;43.606;1.472;2023-11-21T03:34:34;5.35;;;1.40;;
54235;SDS011;40151;43.606;1.472;2023-11-21T03:37:00;4.07;;;1.50;;
54235;SDS011;40151;43.606;1.472;2023-11-21T03:39:25;5.05;;;1.65;;
54235;SDS011;40151;43.606;1.472;2023-11-21T03:41:50;3.35;;;1.10;;
54235;SDS011;40151;43.606;1.472;2023-11-21T03:44:17;4.03;;;1.30;;
54235;SDS011;40151;43.606;1.472;2023-11-21T03:46:43;4.22;;;1.42;;
54235;SDS011;40151;43.606;1.472;2023-11-21T03:49:09;4.22;;;1.15;;
54235;SDS011;40151;43.606;1.472;2023-11-21T03:51:35;3.65;;;1.40;;
54235;SDS011;40151;43.606;1.472;2023-11-21T03:54:01;3.58;;;1.23;;
54235;SDS011;40151;43.606;1.472;2023-11-21T03:56:27;4.07;;;1.50;;
54235;SDS011;40151;43.606;1.472;2023-11-21T03:58:52;3.25;;;1.17;;
54235;SDS011;40151;43.606;1.472;2023-11-21T04:01:21;4.93;;;1.20;;
54235;SDS011;40151;43.606;1.472;2023-11-21T04:03:48;3.72;;;1.17;;
54235;SDS011;40151;43.606;1.472;2023-11-21T04:06:16;4.78;;;1.25;;
54235;SDS011;40151;43.606;1.472;2023-11-21T04:08:43;4.15;;;1.45;;
54235;SDS011;40151;43.606;1.472;2023-11-21T04:11:09;2.75;;;1.00;;
54235;SDS011;40151;43.606;1.472;2023-11-21T04:13:37;4.15;;;0.88;;
54235;SDS011;40151;43.606;1.472;2023-11-21T04:16:03;4.90;;;1.30;;
54235;SDS011;40151;43.606;1.472;2023-11-21T04:18:29;4.70;;;1.10;;
54235;SDS011;40151;43.606;1.472;2023-11-21T04:20:55;2.95;;;1.10;;
54235;SDS011;40151;43.606;1.472;2023-11-21T04:23:20;3.58;;;1.05;;
54235;SDS011;40151;43.606;1.472;2023-11-21T04:25:45;3.58;;;1.25;;
54235;SDS011;40151;43.606;1.472;2023-11-21T04:28:11;5.05;;;1.38;;
54235;SDS011;40151;43.606;1.472;2023-11-21T04:30:37;3.92;;;1.33;;
54235;SDS011;40151;43.606;1.472;2023-11-21T04:33:04;3.53;;;0.93;;
54235;SDS011;40151;43.606;1.472;2023-11-21T04:35:30;2.05;;;0.80;;
54235;SDS011;40151;43.606;1.472;2023-11-21T04:37:55;3.47;;;1.10;;
54235;SDS011;40151;43.606;1.472;2023-11-21T04:40:22;3.85;;;1.00;;
54235;SDS011;40151;43.606;1.472;2023-11-21T04:42:47;3.50;;;0.80;;
54235;SDS011;40151;43.606;1.472;2023-11-21T04:45:13;3.60;;;1.05;;
54235;SDS011;40151;43.606;1.472;2023-11-21T04:47:38;4.05;;;1.08;;
54235;SDS011;40151;43.606;1.472;2023-11-21T04:50:04;2.90;;;0.90;;
54235;SDS011;40151;43.606;1.472;2023-11-21T04:52:30;3.03;;;0.82;;
54235;SDS011;40151;43.606;1.472;2023-11-21T04:54:57;3.33;;;1.10;;
54235;SDS011;40151;43.606;1.472;2023-11-21T04:57:23;2.80;;;0.88;;
54235;SDS011;40151;43.606;1.472;2023-11-21T04:59:49;3.88;;;1.25;;
54235;SDS011;40151;43.606;1.472;2023-11-21T05:02:15;3.33;;;1.20;;
54235;SDS011;40151;43.606;1.472;2023-11-21T05:04:41;3.90;;;1.20;;
54235;SDS011;40151;43.606;1.472;2023-11-21T05:07:07;3.38;;;1.02;;
54235;SDS011;40151;43.606;1.472;2023-11-21T05:09:33;4.18;;;1.13;;
54235;SDS011;40151;43.606;1.472;2023-11-21T05:11:59;3.15;;;0.90;;
54235;SDS011;40151;43.606;1.472;2023-11-21T05:14:25;3.50;;;0.73;;
54235;SDS011;40151;43.606;1.472;2023-11-21T05:16:50;3.20;;;0.80;;
54235;SDS011;40151;43.606;1.472;2023-11-21T05:19:17;3.60;;;1.00;;
54235;SDS011;40151;43.606;1.472;2023-11-21T05:21:42;4.72;;;1.42;;
54235;SDS011;40151;43.606;1.472;2023-11-21T05:24:07;4.05;;;1.17;;
54235;SDS011;40151;43.606;1.472;2023-11-21T05:26:34;3.75;;;1.10;;
54235;SDS011;40151;43.606;1.472;2023-11-21T05:29:00;3.50;;;0.98;;
54235;SDS011;40151;43.606;1.472;2023-11-21T05:31:25;3.35;;;1.08;;
54235;SDS011;40151;43.606;1.472;2023-11-21T05:33:52;2.92;;;0.80;;
54235;SDS011;40151;43.606;1.472;2023-11-21T05:36:17;4.85;;;1.38;;
54235;SDS011;40151;43.606;1.472;2023-11-21T05:38:43;4.97;;;1.13;;
54235;SDS011;40151;43.606;1.472;2023-11-21T05:41:08;4.07;;;1.00;;
54235;SDS011;40151;43.606;1.472;2023-11-21T05:43:36;3.63;;;1.00;;
54235;SDS011;40151;43.606;1.472;2023-11-21T05:46:01;3.72;;;1.02;;
54235;SDS011;40151;43.606;1.472;2023-11-21T05:48:26;3.47;;;1.08;;
54235;SDS011;40151;43.606;1.472;2023-11-21T05:50:52;5.25;;;1.15;;
54235;SDS011;40151;43.606;1.472;2023-11-21T05:53:18;3.40;;;0.80;;
54235;SDS011;40151;43.606;1.472;2023-11-21T05:55:43;3.90;;;1.05;;
54235;SDS011;40151;43.606;1.472;2023-11-21T05:58:08;2.55;;;0.80;;
54235;SDS011;40151;43.606;1.472;2023-11-21T06:00:34;4.82;;;1.20;;
54235;SDS011;40151;43.606;1.472;2023-11-21T06:03:00;4.82;;;0.90;;
54235;SDS011;40151;43.606;1.472;2023-11-21T06:05:26;5.47;;;1.05;;
54235;SDS011;40151;43.606;1.472;2023-11-21T06:07:52;6.05;;;1.63;;
54235;SDS011;40151;43.606;1.472;2023-11-21T06:10:19;13.45;;;5.13;;
54235;SDS011;40151;43.606;1.472;2023-11-21T06:12:46;15.45;;;8.20;;
54235;SDS011;40151;43.606;1.472;2023-11-21T06:15:12;12.90;;;7.95;;
54235;SDS011;40151;43.606;1.472;2023-11-21T06:17:38;17.00;;;8.23;;
54235;SDS011;40151;43.606;1.472;2023-11-21T06:20:05;13.32;;;8.45;;
54235;SDS011;40151;43.606;1.472;2023-11-21T06:22:41;15.95;;;10.70;;
54235;SDS011;40151;43.606;1.472;2023-11-21T06:25:08;16.77;;;10.55;;
54235;SDS011;40151;43.606;1.472;2023-11-21T06:27:37;18.13;;;10.55;;
54235;SDS011;40151;43.606;1.472;2023-11-21T06:30:05;21.27;;;11.75;;
54235;SDS011;40151;43.606;1.472;2023-11-21T06:32:31;19.60;;;11.93;;
54235;SDS011;40151;43.606;1.472;2023-11-21T06:34:57;19.63;;;11.75;;
54235;SDS011;40151;43.606;1.472;2023-11-21T06:37:25;23.52;;;13.00;;
54235;SDS011;40151;43.606;1.472;2023-11-21T06:39:51;15.18;;;10.70;;
54235;SDS011;40151;43.606;1.472;2023-11-21T06:42:17;17.85;;;9.90;;
54235;SDS011;40151;43.606;1.472;2023-11-21T06:44:44;22.33;;;9.85;;
54235;SDS011;40151;43.606;1.472;2023-11-21T06:47:10;21.48;;;10.25;;
54235;SDS011;40151;43.606;1.472;2023-11-21T06:49:35;17.83;;;7.63;;
54235;SDS011;40151;43.606;1.472;2023-11-21T06:52:01;22.85;;;9.00;;
54235;SDS011;40151;43.606;1.472;2023-11-21T06:54:28;17.40;;;9.35;;
54235;SDS011;40151;43.606;1.472;2023-11-21T06:56:54;22.30;;;9.88;;
54235;SDS011;40151;43.606;1.472;2023-11-21T06:59:19;19.05;;;9.80;;
54235;SDS011;40151;43.606;1.472;2023-11-21T07:01:45;19.38;;;9.68;;
54235;SDS011;40151;43.606;1.472;2023-11-21T07:04:10;22.08;;;10.05;;
54235;SDS011;40151;43.606;1.472;2023-11-21T07:06:35;20.80;;;10.75;;
54235;SDS011;40151;43.606;1.472;2023-11-21T07:09:01;18.05;;;9.75;;
54235;SDS011;40151;43.606;1.472;2023-11-21T07:11:27;18.48;;;10.27;;
54235;SDS011;40151;43.606;1.472;2023-11-21T07:13:52;20.30;;;10.50;;
54235;SDS011;40151;43.606;1.472;2023-11-21T07:16:18;19.27;;;10.48;;
54235;SDS011;40151;43.606;1.472;2023-11-21T07:18:44;19.35;;;10.93;;
54235;SDS011;40151;43.606;1.472;2023-11-21T07:21:10;20.45;;;11.27;;
54235;SDS011;40151;43.606;1.472;2023-11-21T07:23:37;25.45;;;11.88;;
54235;SDS011;40151;43.606;1.472;2023-11-21T07:26:03;18.45;;;11.00;;
54235;SDS011;40151;43.606;1.472;2023-11-21T07:28:31;20.45;;;12.63;;
54235;SDS011;40151;43.606;1.472;2023-11-21T07:30:56;16.23;;;11.07;;
54235;SDS011;40151;43.606;1.472;2023-11-21T07:33:22;20.63;;;11.40;;
54235;SDS011;40151;43.606;1.472;2023-11-21T07:35:47;19.25;;;11.70;;
54235;SDS011;40151;43.606;1.472;2023-11-21T07:38:13;19.10;;;11.73;;
54235;SDS011;40151;43.606;1.472;2023-11-21T07:40:38;18.65;;;11.48;;
54235;SDS011;40151;43.606;1.472;2023-11-21T07:43:04;19.42;;;11.65;;
54235;SDS011;40151;43.606;1.472;2023-11-21T07:45:30;20.73;;;11.23;;
54235;SDS011;40151;43.606;1.472;2023-11-21T07:47:56;17.58;;;11.93;;
54235;SDS011;40151;43.606;1.472;2023-11-21T07:50:21;19.17;;;12.23;;
54235;SDS011;40151;43.606;1.472;2023-11-21T07:52:48;19.75;;;11.77;;
54235;SDS011;40151;43.606;1.472;2023-11-21T07:55:14;19.08;;;12.80;;
54235;SDS011;40151;43.606;1.472;2023-11-21T07:57:40;17.17;;;11.90;;
54235;SDS011;40151;43.606;1.472;2023-11-21T08:00:06;19.50;;;13.43;;
54235;SDS011;40151;43.606;1.472;2023-11-21T08:02:34;17.08;;;12.15;;
54235;SDS011;40151;43.606;1.472;2023-11-21T08:05:00;19.23;;;12.45;;
54235;SDS011;40151;43.606;1.472;2023-11-21T08:07:25;18.77;;;12.57;;
54235;SDS011;40151;43.606;1.472;2023-11-21T08:09:51;19.45;;;11.88;;
54235;SDS011;40151;43.606;1.472;2023-11-21T08:12:17;19.42;;;11.00;;
54235;SDS011;40151;43.606;1.472;2023-11-21T08:14:43;20.10;;;11.98;;
54235;SDS011;40151;43.606;1.472;2023-11-21T08:17:09;17.88;;;10.32;;
54235;SDS011;40151;43.606;1.472;2023-11-21T08:19:35;18.73;;;11.52;;
54235;SDS011;40151;43.606;1.472;2023-11-21T08:22:01;16.33;;;10.23;;
54235;SDS011;40151;43.606;1.472;2023-11-21T08:24:27;17.27;;;10.82;;
54235;SDS011;40151;43.606;1.472;2023-11-21T08:26:53;15.98;;;10.55;;
54235;SDS011;40151;43.606;1.472;2023-11-21T08:29:19;18.17;;;11.65;;
54235;SDS011;40151;43.606;1.472;2023-11-21T08:31:44;17.23;;;11.05;;
54235;SDS011;40151;43.606;1.472;2023-11-21T08:34:13;17.10;;;11.02;;
54235;SDS011;40151;43.606;1.472;2023-11-21T08:36:42;16.23;;;11.20;;
54235;SDS011;40151;43.606;1.472;2023-11-21T08:39:08;16.63;;;10.50;;
54235;SDS011;40151;43.606;1.472;2023-11-21T08:41:34;15.55;;;10.43;;
54235;SDS011;40151;43.606;1.472;2023-11-21T08:44:01;15.88;;;9.70;;
54235;SDS011;40151;43.606;1.472;2023-11-21T08:46:31;16.00;;;9.93;;
54235;SDS011;40151;43.606;1.472;2023-11-21T08:48:56;15.55;;;9.65;;
54235;SDS011;40151;43.606;1.472;2023-11-21T08:51:22;18.33;;;10.00;;
54235;SDS011;40151;43.606;1.472;2023-11-21T08:53:47;15.30;;;9.30;;
54235;SDS011;40151;43.606;1.472;2023-11-21T08:56:12;13.25;;;9.13;;
54235;SDS011;40151;43.606;1.472;2023-11-21T08:58:41;15.40;;;9.45;;
54235;SDS011;40151;43.606;1.472;2023-11-21T09:01:07;14.15;;;9.15;;
54235;SDS011;40151;43.606;1.472;2023-11-21T09:03:32;12.15;;;8.50;;
54235;SDS011;40151;43.606;1.472;2023-11-21T09:05:59;14.90;;;9.57;;
54235;SDS011;40151;43.606;1.472;2023-11-21T09:08:24;14.57;;;8.52;;
54235;SDS011;40151;43.606;1.472;2023-11-21T09:10:50;13.60;;;9.02;;
54235;SDS011;40151;43.606;1.472;2023-11-21T09:13:16;15.23;;;9.20;;
54235;SDS011;40151;43.606;1.472;2023-11-21T09:15:43;13.88;;;9.13;;
54235;SDS011;40151;43.606;1.472;2023-11-21T09:18:11;12.25;;;8.73;;
54235;SDS011;40151;43.606;1.472;2023-11-21T09:20:40;11.43;;;8.00;;
54235;SDS011;40151;43.606;1.472;2023-11-21T09:23:05;13.20;;;8.30;;
54235;SDS011;40151;43.606;1.472;2023-11-21T09:25:32;12.15;;;7.88;;
54235;SDS011;40151;43.606;1.472;2023-11-21T09:27:57;12.80;;;7.95;;
54235;SDS011;40151;43.606;1.472;2023-11-21T09:30:23;12.38;;;8.00;;
54235;SDS011;40151;43.606;1.472;2023-11-21T09:32:49;11.40;;;7.40;;
54235;SDS011;40151;43.606;1.472;2023-11-21T09:35:15;12.38;;;8.15;;
54235;SDS011;40151;43.606;1.472;2023-11-21T09:37:43;12.05;;;8.02;;
54235;SDS011;40151;43.606;1.472;2023-11-21T09:40:11;12.05;;;7.45;;
54235;SDS011;40151;43.606;1.472;2023-11-21T09:42:53;11.45;;;7.05;;
54235;SDS011;40151;43.606;1.472;2023-11-21T09:45:23;11.70;;;7.05;;
54235;SDS011;40151;43.606;1.472;2023-11-21T09:47:52;11.40;;;7.35;;
54235;SDS011;40151;43.606;1.472;2023-11-21T09:50:19;12.90;;;6.88;;
54235;SDS011;40151;43.606;1.472;2023-11-21T09:55:31;10.45;;;6.57;;
54235;SDS011;40151;43.606;1.472;2023-11-21T09:58:01;10.95;;;7.03;;
54235;SDS011;40151;43.606;1.472;2023-11-21T10:00:28;10.27;;;6.72;;
54235;SDS011;40151;43.606;1.472;2023-11-21T10:02:58;11.88;;;7.15;;
54235;SDS011;40151;43.606;1.472;2023-11-21T10:05:23;9.65;;;6.50;;
54235;SDS011;40151;43.606;1.472;2023-11-21T10:07:52;9.77;;;6.30;;
54235;SDS011;40151;43.606;1.472;2023-11-21T10:10:22;9.82;;;6.20;;
54235;SDS011;40151;43.606;1.472;2023-11-21T10:12:50;10.43;;;6.55;;
54235;SDS011;40151;43.606;1.472;2023-11-21T10:15:23;11.52;;;6.38;;
54235;SDS011;40151;43.606;1.472;2023-11-21T10:17:53;9.80;;;5.97;;
54235;SDS011;40151;43.606;1.472;2023-11-21T10:20:20;11.70;;;6.63;;
54235;SDS011;40151;43.606;1.472;2023-11-21T10:22:45;9.32;;;6.38;;
54235;SDS011;40151;43.606;1.472;2023-11-21T10:25:11;8.55;;;5.60;;
54235;SDS011;40151;43.606;1.472;2023-11-21T10:27:41;8.30;;;5.35;;
54235;SDS011;40151;43.606;1.472;2023-11-21T10:30:08;8.15;;;5.53;;
54235;SDS011;40151;43.606;1.472;2023-11-21T10:32:40;10.25;;;5.40;;
54235;SDS011;40151;43.606;1.472;2023-11-21T10:35:07;10.20;;;6.10;;
54235;SDS011;40151;43.606;1.472;2023-11-21T10:37:38;7.22;;;4.68;;
54235;SDS011;40151;43.606;1.472;2023-11-21T10:40:05;9.70;;;5.38;;
54235;SDS011;40151;43.606;1.472;2023-11-21T10:42:40;9.70;;;5.38;;
54235;SDS011;40151;43.606;1.472;2023-11-21T10:45:09;8.63;;;5.25;;
54235;SDS011;40151;43.606;1.472;2023-11-21T10:47:39;9.02;;;5.57;;
54235;SDS011;40151;43.606;1.472;2023-11-21T10:50:06;8.43;;;4.95;;
54235;SDS011;40151;43.606;1.472;2023-11-21T10:52:36;7.80;;;5.00;;
54235;SDS011;40151;43.606;1.472;2023-11-21T10:55:18;8.50;;;5.10;;
54235;SDS011;40151;43.606;1.472;2023-11-21T10:57:51;7.65;;;4.72;;
54235;SDS011;40151;43.606;1.472;2023-11-21T11:00:19;8.30;;;4.75;;
54235;SDS011;40151;43.606;1.472;2023-11-21T11:02:53;8.23;;;5.10;;
54235;SDS011;40151;43.606;1.472;2023-11-21T11:05:20;8.50;;;4.68;;
54235;SDS011;40151;43.606;1.472;2023-11-21T11:07:50;8.80;;;4.47;;
54235;SDS011;40151;43.606;1.472;2023-11-21T11:10:20;6.60;;;4.00;;
54235;SDS011;40151;43.606;1.472;2023-11-21T11:12:47;7.53;;;4.75;;
54235;SDS011;40151;43.606;1.472;2023-11-21T11:15:14;7.88;;;4.90;;
54235;SDS011;40151;43.606;1.472;2023-11-21T11:17:41;7.90;;;4.35;;
54235;SDS011;40151;43.606;1.472;2023-11-21T11:20:09;7.72;;;4.43;;
54235;SDS011;40151;43.606;1.472;2023-11-21T11:22:40;7.40;;;4.50;;
54235;SDS011;40151;43.606;1.472;2023-11-21T11:28:26;8.48;;;4.22;;
54235;SDS011;40151;43.606;1.472;2023-11-21T11:31:01;7.95;;;4.40;;
54235;SDS011;40151;43.606;1.472;2023-11-21T11:36:31;7.40;;;4.32;;
54235;SDS011;40151;43.606;1.472;2023-11-21T11:39:01;7.03;;;4.22;;
54235;SDS011;40151;43.606;1.472;2023-11-21T11:41:30;7.47;;;3.85;;
54235;SDS011;40151;43.606;1.472;2023-11-21T11:44:00;9.00;;;4.53;;
54235;SDS011;40151;43.606;1.472;2023-11-21T11:46:41;7.13;;;4.00;;
54235;SDS011;40151;43.606;1.472;2023-11-21T11:49:10;5.78;;;3.65;;
54235;SDS011;40151;43.606;1.472;2023-11-21T11:51:36;7.10;;;3.95;;
54235;SDS011;40151;43.606;1.472;2023-11-21T11:54:01;6.38;;;3.67;;
54235;SDS011;40151;43.606;1.472;2023-11-21T11:56:31;6.88;;;3.85;;
54235;SDS011;40151;43.606;1.472;2023-11-21T11:59:04;6.72;;;4.00;;
54235;SDS011;40151;43.606;1.472;2023-11-21T12:01:31;6.50;;;3.63;;
54235;SDS011;40151;43.606;1.472;2023-11-21T12:06:56;7.82;;;3.97;;
54235;SDS011;40151;43.606;1.472;2023-11-21T12:09:24;6.22;;;3.83;;
54235;SDS011;40151;43.606;1.472;2023-11-21T12:11:51;7.13;;;3.45;;
54235;SDS011;40151;43.606;1.472;2023-11-21T12:14:17;6.00;;;3.50;;
54235;SDS011;40151;43.606;1.472;2023-11-21T12:16:43;6.72;;;3.72;;
54235;SDS011;40151;43.606;1.472;2023-11-21T12:19:09;6.50;;;3.92;;
54235;SDS011;40151;43.606;1.472;2023-11-21T12:21:36;6.45;;;3.50;;
54235;SDS011;40151;43.606;1.472;2023-11-21T12:24:01;6.07;;;3.53;;
54235;SDS011;40151;43.606;1.472;2023-11-21T12:26:26;7.00;;;3.30;;
54235;SDS011;40151;43.606;1.472;2023-11-21T12:28:52;5.65;;;3.28;;
54235;SDS011;40151;43.606;1.472;2023-11-21T12:31:20;7.18;;;3.47;;
54235;SDS011;40151;43.606;1.472;2023-11-21T12:33:49;8.88;;;3.22;;
54235;SDS011;40151;43.606;1.472;2023-11-21T12:36:15;6.18;;;3.47;;
54235;SDS011;40151;43.606;1.472;2023-11-21T12:38:42;6.10;;;3.15;;
54235;SDS011;40151;43.606;1.472;2023-11-21T12:41:09;5.65;;;3.45;;
54235;SDS011;40151;43.606;1.472;2023-11-21T12:43:37;5.32;;;3.10;;
54235;SDS011;40151;43.606;1.472;2023-11-21T12:46:10;7.43;;;3.38;;
54235;SDS011;40151;43.606;1.472;2023-11-21T12:48:39;5.78;;;3.30;;
54235;SDS011;40151;43.606;1.472;2023-11-21T12:51:09;6.75;;;3.47;;
54235;SDS011;40151;43.606;1.472;2023-11-21T12:53:35;5.13;;;2.75;;
54235;SDS011;40151;43.606;1.472;2023-11-21T12:56:06;4.75;;;2.63;;
54235;SDS011;40151;43.606;1.472;2023-11-21T12:58:36;5.05;;;2.90;;
54235;SDS011;40151;43.606;1.472;2023-11-21T13:01:04;5.25;;;3.05;;
54235;SDS011;40151;43.606;1.472;2023-11-21T13:03:30;7.28;;;3.03;;
54235;SDS011;40151;43.606;1.472;2023-11-21T13:05:56;4.20;;;2.45;;
54235;SDS011;40151;43.606;1.472;2023-11-21T13:08:23;5.88;;;3.10;;
54235;SDS011;40151;43.606;1.472;2023-11-21T13:10:53;5.93;;;2.97;;
54235;SDS011;40151;43.606;1.472;2023-11-21T13:13:21;4.20;;;2.67;;
54235;SDS011;40151;43.606;1.472;2023-11-21T13:15:58;6.60;;;3.00;;
54235;SDS011;40151;43.606;1.472;2023-11-21T13:18:26;4.90;;;2.75;;
54235;SDS011;40151;43.606;1.472;2023-11-21T13:20:53;4.20;;;2.35;;
54235;SDS011;40151;43.606;1.472;2023-11-21T13:23:23;5.13;;;2.40;;
54235;SDS011;40151;43.606;1.472;2023-11-21T13:25:49;5.38;;;2.60;;
54235;SDS011;40151;43.606;1.472;2023-11-21T13:28:15;5.78;;;2.60;;
54235;SDS011;40151;43.606;1.472;2023-11-21T13:30:40;6.15;;;2.78;;
54235;SDS011;40151;43.606;1.472;2023-11-21T13:33:07;4.50;;;2.58;;
54235;SDS011;40151;43.606;1.472;2023-11-21T13:35:37;5.00;;;2.78;;
54235;SDS011;40151;43.606;1.472;2023-11-21T13:38:07;5.40;;;2.80;;
54235;SDS011;40151;43.606;1.472;2023-11-21T13:40:35;4.63;;;2.72;;
54235;SDS011;40151;43.606;1.472;2023-11-21T13:43:14;4.82;;;2.30;;
54235;SDS011;40151;43.606;1.472;2023-11-21T13:45:41;4.00;;;2.38;;
54235;SDS011;40151;43.606;1.472;2023-11-21T13:48:09;5.32;;;2.47;;
54235;SDS011;40151;43.606;1.472;2023-11-21T13:50:39;4.65;;;2.40;;
54235;SDS011;40151;43.606;1.472;2023-11-21T13:53:09;4.00;;;2.22;;
54235;SDS011;40151;43.606;1.472;2023-11-21T13:55:45;4.55;;;2.58;;
54235;SDS011;40151;43.606;1.472;2023-11-21T13:58:10;3.88;;;2.08;;
54235;SDS011;40151;43.606;1.472;2023-11-21T14:00:42;4.45;;;2.33;;
54235;SDS011;40151;43.606;1.472;2023-11-21T14:03:11;3.90;;;2.22;;
54235;SDS011;40151;43.606;1.472;2023-11-21T14:05:49;3.83;;;2.15;;
54235;SDS011;40151;43.606;1.472;2023-11-21T14:08:18;4.22;;;2.28;;
54235;SDS011;40151;43.606;1.472;2023-11-21T14:10:46;4.93;;;2.13;;
54235;SDS011;40151;43.606;1.472;2023-11-21T14:13:20;3.50;;;1.95;;
54235;SDS011;40151;43.606;1.472;2023-11-21T14:15:48;3.70;;;1.92;;
54235;SDS011;40151;43.606;1.472;2023-11-21T14:18:18;3.58;;;2.03;;
54235;SDS011;40151;43.606;1.472;2023-11-21T14:20:52;4.43;;;2.42;;
54235;SDS011;40151;43.606;1.472;2023-11-21T14:23:17;3.80;;;2.00;;
54235;SDS011;40151;43.606;1.472;2023-11-21T14:25:43;4.70;;;2.38;;
54235;SDS011;40151;43.606;1.472;2023-11-21T14:28:08;4.05;;;2.03;;
54235;SDS011;40151;43.606;1.472;2023-11-21T14:30:36;4.05;;;2.25;;
54235;SDS011;40151;43.606;1.472;2023-11-21T14:33:04;3.90;;;1.92;;
54235;SDS011;40151;43.606;1.472;2023-11-21T14:35:30;3.75;;;2.00;;
54235;SDS011;40151;43.606;1.472;2023-11-21T14:37:57;4.05;;;2.20;;
54235;SDS011;40151;43.606;1.472;2023-11-21T14:40:24;4.88;;;2.53;;
54235;SDS011;40151;43.606;1.472;2023-11-21T14:42:50;3.78;;;2.00;;
54235;SDS011;40151;43.606;1.472;2023-11-21T14:45:21;3.83;;;1.98;;
54235;SDS011;40151;43.606;1.472;2023-11-21T14:47:48;3.72;;;1.92;;
54235;SDS011;40151;43.606;1.472;2023-11-21T14:50:40;4.28;;;2.20;;
54235;SDS011;40151;43.606;1.472;2023-11-21T14:53:07;4.38;;;2.10;;